createdAt,value
2018-05-03T00:00:25.894Z,11.70
2018-05-03T00:02:54.822Z,11.80
2018-05-03T00:05:22.987Z,11.80
2018-05-03T00:07:51.194Z,11.90
2018-05-03T00:10:24.245Z,11.90
2018-05-03T00:12:52.416Z,11.90
2018-05-03T00:15:20.607Z,11.90
2018-05-03T00:17:49.703Z,11.80
2018-05-03T00:20:17.941Z,11.80
2018-05-03T00:22:46.105Z,11.80
2018-05-03T00:25:15.024Z,11.70
2018-05-03T00:27:43.169Z,11.70
2018-05-03T00:30:12.101Z,11.90
2018-05-03T00:32:40.247Z,11.90
2018-05-03T00:35:08.424Z,11.90
2018-05-03T00:37:37.339Z,12.00
2018-05-03T00:40:05.572Z,12.00
2018-05-03T00:42:34.497Z,12.00
2018-05-03T00:45:02.668Z,12.00
2018-05-03T00:47:30.820Z,12.10
2018-05-03T00:49:59.736Z,12.00
2018-05-03T00:52:27.902Z,12.00
2018-05-03T00:54:56.068Z,11.90
2018-05-03T00:57:24.223Z,11.90
2018-05-03T00:59:53.216Z,11.90
2018-05-03T01:02:22.146Z,11.90
2018-05-03T01:04:50.312Z,11.90
2018-05-03T01:07:18.538Z,11.90
2018-05-03T01:09:46.749Z,11.90
2018-05-03T01:12:14.911Z,11.90
2018-05-03T01:14:43.853Z,11.90
2018-05-03T01:17:12.652Z,11.90
2018-05-03T01:19:40.881Z,11.90
2018-05-03T01:22:09.024Z,11.80
2018-05-03T01:24:37.168Z,11.80
2018-05-03T01:27:05.346Z,11.70
2018-05-03T01:29:34.610Z,11.60
2018-05-03T01:32:02.800Z,11.60
2018-05-03T01:34:30.945Z,11.50
2018-05-03T01:36:59.087Z,11.60
2018-05-03T01:39:27.239Z,11.50
2018-05-03T01:41:55.408Z,11.50
2018-05-03T01:44:23.581Z,11.50
2018-05-03T01:46:51.723Z,11.50
2018-05-03T01:49:19.908Z,11.50
2018-05-03T01:51:48.069Z,11.60
2018-05-03T01:54:16.250Z,11.60
2018-05-03T01:56:44.425Z,11.70
2018-05-03T01:59:12.607Z,11.60
2018-05-03T02:01:40.798Z,11.60
2018-05-03T02:04:08.972Z,11.60
2018-05-03T02:06:37.212Z,11.60
2018-05-03T02:09:05.410Z,11.70
2018-05-03T02:11:33.556Z,11.60
2018-05-03T02:14:01.709Z,11.50
2018-05-03T02:16:31.558Z,11.50
2018-05-03T02:18:59.736Z,11.50
2018-05-03T02:21:28.043Z,11.50
2018-05-03T02:23:56.195Z,11.50
2018-05-03T02:26:24.369Z,11.50
2018-05-03T02:28:52.515Z,11.50
2018-05-03T02:31:20.694Z,11.50
2018-05-03T02:33:48.843Z,11.60
2018-05-03T02:36:18.647Z,11.70
2018-05-03T02:38:47.572Z,11.60
2018-05-03T02:41:16.715Z,11.60
2018-05-03T02:43:44.884Z,11.70
2018-05-03T02:46:13.037Z,11.70
2018-05-03T02:48:41.195Z,11.70
2018-05-03T02:51:09.385Z,11.70
2018-05-03T02:53:37.551Z,11.70
2018-05-03T02:56:05.701Z,11.70
2018-05-03T02:58:45.679Z,11.70
2018-05-03T03:01:31.479Z,11.70
2018-05-03T03:04:17.051Z,11.70
2018-05-03T03:07:13.784Z,11.70
2018-05-03T03:13:05.983Z,11.70
2018-05-03T03:15:45.882Z,11.80
2018-05-03T03:18:31.741Z,11.80
2018-05-03T03:21:18.010Z,11.70
2018-05-03T03:24:03.769Z,11.70
2018-05-03T03:27:02.509Z,11.70
2018-05-03T03:29:43.480Z,11.70
2018-05-03T03:32:23.592Z,11.80
2018-05-03T03:35:04.063Z,11.80
2018-05-03T03:37:44.095Z,11.80
2018-05-03T03:40:25.099Z,11.80
2018-05-03T03:43:14.326Z,11.80
2018-05-03T03:45:42.525Z,11.80
2018-05-03T03:48:10.682Z,11.80
2018-05-03T03:50:38.859Z,11.80
2018-05-03T03:53:07.164Z,11.90
2018-05-03T03:55:36.976Z,11.90
2018-05-03T03:58:05.169Z,11.90
2018-05-03T04:00:33.419Z,11.90
2018-05-03T04:03:01.567Z,11.90
2018-05-03T04:05:29.718Z,11.90
2018-05-03T04:07:57.891Z,12.00
2018-05-03T04:10:26.912Z,12.00
2018-05-03T04:12:55.652Z,12.00
2018-05-03T04:15:24.195Z,12.00
2018-05-03T04:18:05.238Z,12.00
2018-05-03T04:20:46.172Z,12.00
2018-05-03T04:23:44.041Z,12.10
2018-05-03T04:26:12.213Z,12.10
2018-05-03T04:28:40.344Z,12.20
2018-05-03T04:31:08.685Z,12.20
2018-05-03T04:33:37.049Z,12.30
2018-05-03T04:36:05.227Z,12.30
2018-05-03T04:38:33.385Z,12.30
2018-05-03T04:41:02.625Z,12.30
2018-05-03T04:43:31.574Z,12.30
2018-05-03T04:46:00.516Z,12.20
2018-05-03T04:48:28.704Z,12.20
2018-05-03T04:50:56.920Z,12.20
2018-05-03T04:53:25.107Z,12.20
2018-05-03T04:55:53.266Z,12.30
2018-05-03T04:58:21.436Z,12.30
2018-05-03T05:00:50.599Z,12.30
2018-05-03T05:03:18.793Z,12.40
2018-05-03T05:05:47.373Z,12.40
2018-05-03T05:08:15.556Z,12.50
2018-05-03T05:10:44.997Z,12.50
2018-05-03T05:13:13.161Z,12.60
2018-05-03T05:15:41.966Z,12.70
2018-05-03T05:18:10.183Z,12.70
2018-05-03T05:20:39.137Z,12.80
2018-05-03T05:23:07.675Z,12.90
2018-05-03T05:25:36.106Z,12.90
2018-05-03T05:28:05.044Z,12.90
2018-05-03T05:30:33.224Z,13.00
2018-05-03T05:33:01.382Z,12.90
2018-05-03T05:35:29.646Z,12.90
2018-05-03T05:37:58.558Z,12.90
2018-05-03T05:40:26.724Z,12.90
2018-05-03T05:42:54.886Z,12.90
2018-05-03T05:45:23.897Z,12.90
2018-05-03T05:47:52.003Z,12.90
2018-05-03T05:50:20.244Z,13.00
2018-05-03T05:52:48.424Z,13.00
2018-05-03T05:55:16.604Z,13.00
2018-05-03T05:57:44.769Z,13.00
2018-05-03T06:00:14.006Z,13.10
2018-05-03T06:02:42.176Z,13.10
2018-05-03T06:05:10.330Z,13.10
2018-05-03T06:07:38.499Z,13.20
2018-05-03T06:10:06.664Z,13.30
2018-05-03T06:12:34.866Z,13.30
2018-05-03T06:15:03.418Z,13.40
2018-05-03T06:17:31.591Z,13.40
2018-05-03T06:19:59.758Z,15.00
2018-05-03T06:22:27.926Z,13.30
2018-05-03T06:24:56.098Z,13.30
2018-05-03T06:27:24.459Z,13.30
2018-05-03T06:29:52.665Z,13.30
2018-05-03T06:32:21.288Z,13.30
2018-05-03T06:34:49.450Z,13.40
2018-05-03T06:37:17.599Z,13.50
2018-05-03T06:39:45.792Z,13.40
2018-05-03T06:42:14.702Z,13.40
2018-05-03T06:44:42.905Z,13.40
2018-05-03T06:47:12.396Z,13.50
2018-05-03T06:49:41.573Z,13.50
2018-05-03T06:52:09.803Z,13.60
2018-05-03T06:54:38.990Z,13.60
2018-05-03T06:57:07.916Z,13.80
2018-05-03T06:59:36.129Z,13.80
2018-05-03T07:02:05.016Z,13.90
2018-05-03T07:04:33.963Z,13.90
2018-05-03T07:07:02.144Z,13.90
2018-05-03T07:09:30.464Z,13.90
2018-05-03T07:11:58.654Z,13.90
2018-05-03T07:14:26.821Z,13.70
2018-05-03T07:16:54.969Z,13.70
2018-05-03T07:19:23.124Z,13.70
2018-05-03T07:21:51.299Z,13.70
2018-05-03T07:24:19.476Z,13.70
2018-05-03T07:26:47.712Z,13.80
2018-05-03T07:29:15.921Z,13.90
2018-05-03T07:31:44.036Z,14.00
2018-05-03T07:34:12.207Z,14.00
2018-05-03T07:36:40.377Z,14.10
2018-05-03T07:39:08.554Z,14.30
2018-05-03T07:41:36.706Z,14.40
2018-05-03T07:44:04.848Z,14.40
2018-05-03T07:46:33.077Z,14.40
2018-05-03T07:49:01.201Z,14.40
2018-05-03T07:51:29.461Z,14.40
2018-05-03T07:53:57.619Z,14.40
2018-05-03T07:56:26.545Z,14.50
2018-05-03T07:58:54.703Z,14.50
2018-05-03T08:01:22.967Z,14.60
2018-05-03T08:03:51.129Z,14.80
2018-05-03T08:06:20.058Z,14.60
2018-05-03T08:08:48.254Z,14.60
2018-05-03T08:11:16.516Z,14.60
2018-05-03T08:13:44.692Z,14.60
2018-05-03T08:16:12.858Z,14.60
2018-05-03T08:18:41.743Z,14.60
2018-05-03T08:21:11.032Z,14.60
2018-05-03T08:23:39.247Z,14.70
2018-05-03T08:26:07.493Z,14.70
2018-05-03T08:28:35.687Z,14.70
2018-05-03T08:31:03.940Z,14.70
2018-05-03T08:33:32.489Z,14.70
2018-05-03T08:36:00.647Z,14.60
2018-05-03T08:38:28.940Z,14.60
2018-05-03T08:40:58.399Z,14.60
2018-05-03T08:43:26.572Z,14.80
2018-05-03T08:45:54.978Z,15.00
2018-05-03T08:48:23.188Z,15.20
2018-05-03T08:50:52.203Z,15.30
2018-05-03T08:53:20.424Z,15.40
2018-05-03T08:55:48.618Z,15.50
2018-05-03T08:58:16.745Z,15.70
2018-05-03T09:00:45.929Z,15.80
2018-05-03T09:03:14.413Z,15.90
2018-05-03T09:05:42.592Z,15.90
2018-05-03T09:08:10.779Z,15.50
2018-05-03T09:10:39.029Z,15.40
2018-05-03T09:13:07.192Z,15.50
2018-05-03T09:15:36.088Z,15.40
2018-05-03T09:18:04.265Z,15.50
2018-05-03T09:20:32.558Z,15.70
2018-05-03T09:23:00.711Z,15.60
2018-05-03T09:25:29.546Z,15.40
2018-05-03T09:27:58.499Z,15.40
2018-05-03T09:30:26.736Z,15.50
2018-05-03T09:32:54.925Z,15.70
2018-05-03T09:35:23.111Z,16.00
2018-05-03T09:37:51.381Z,16.40
2018-05-03T09:40:21.225Z,16.60
2018-05-03T09:42:49.678Z,16.60
2018-05-03T09:45:17.997Z,16.70
2018-05-03T09:47:46.267Z,16.70
2018-05-03T09:50:16.929Z,16.70
2018-05-03T09:52:45.145Z,16.80
2018-05-03T09:55:14.081Z,17.00
2018-05-03T09:57:42.258Z,17.00
2018-05-03T10:00:10.572Z,17.00
2018-05-03T10:02:39.521Z,17.20
2018-05-03T10:05:07.696Z,17.40
2018-05-03T10:07:35.912Z,17.00
2018-05-03T10:10:06.081Z,16.80
2018-05-03T10:12:34.322Z,16.80
2018-05-03T10:15:03.003Z,16.80
2018-05-03T10:17:31.162Z,16.70
2018-05-03T10:19:59.373Z,16.80
2018-05-03T10:22:28.033Z,16.80
2018-05-03T10:24:56.968Z,16.60
2018-05-03T10:27:25.157Z,16.50
2018-05-03T10:29:57.148Z,16.60
2018-05-03T10:32:26.584Z,16.80
2018-05-03T10:34:54.752Z,17.00
2018-05-03T10:37:23.388Z,17.10
2018-05-03T10:39:53.517Z,17.20
2018-05-03T10:42:21.947Z,17.20
2018-05-03T10:44:50.524Z,16.90
2018-05-03T10:47:19.969Z,16.40
2018-05-03T10:49:49.400Z,16.20
2018-05-03T10:52:19.236Z,16.20
2018-05-03T10:54:48.864Z,16.20
2018-05-03T10:57:18.216Z,16.30
2018-05-03T10:59:47.379Z,16.30
2018-05-03T11:02:16.602Z,16.30
2018-05-03T11:04:44.789Z,16.40
2018-05-03T11:07:12.949Z,16.50
2018-05-03T11:09:41.116Z,16.70
2018-05-03T11:12:09.296Z,16.90
2018-05-03T11:14:37.855Z,17.10
2018-05-03T11:17:06.649Z,17.20
2018-05-03T11:19:38.543Z,17.20
2018-05-03T11:22:07.124Z,16.90
2018-05-03T11:24:35.299Z,16.80
2018-05-03T11:27:03.856Z,16.80
2018-05-03T11:29:32.028Z,16.80
2018-05-03T11:32:00.197Z,16.50
2018-05-03T11:34:28.370Z,16.50
2018-05-03T11:36:56.569Z,16.60
2018-05-03T11:39:25.508Z,16.60
2018-05-03T11:41:53.800Z,16.50
2018-05-03T11:44:21.948Z,16.40
2018-05-03T11:46:50.882Z,16.30
2018-05-03T11:49:19.056Z,16.30
2018-05-03T11:51:47.993Z,16.30
2018-05-03T11:54:17.001Z,16.40
2018-05-03T11:56:45.178Z,16.40
2018-05-03T11:59:14.228Z,16.60
2018-05-03T12:01:42.323Z,16.80
2018-05-03T12:04:10.499Z,16.40
2018-05-03T12:06:39.604Z,16.30
2018-05-03T12:09:09.523Z,16.20
2018-05-03T12:11:37.685Z,16.40
2018-05-03T12:14:05.835Z,16.30
2018-05-03T12:16:34.053Z,16.40
2018-05-03T12:19:02.243Z,16.50
2018-05-03T12:21:30.416Z,16.80
2018-05-03T12:23:59.783Z,17.00
2018-05-03T12:26:27.964Z,16.90
2018-05-03T12:28:56.925Z,17.40
2018-05-03T12:31:26.195Z,17.40
2018-05-03T12:33:54.416Z,17.40
2018-05-03T12:36:22.894Z,17.90
2018-05-03T12:38:51.076Z,18.10
2018-05-03T12:41:21.248Z,18.30
2018-05-03T12:43:49.508Z,18.20
2018-05-03T12:46:17.711Z,18.20
2018-05-03T12:48:45.879Z,18.10
2018-05-03T12:51:14.140Z,18.50
2018-05-03T12:53:42.321Z,18.80
2018-05-03T12:56:11.266Z,19.20
2018-05-03T12:58:39.435Z,18.90
2018-05-03T13:01:07.707Z,18.70
2018-05-03T13:03:35.898Z,18.80
2018-05-03T13:06:04.064Z,19.00
2018-05-03T13:08:33.000Z,19.00
2018-05-03T13:11:02.032Z,19.00
2018-05-03T13:13:31.203Z,18.70
2018-05-03T13:15:59.362Z,18.70
2018-05-03T13:18:27.543Z,18.90
2018-05-03T13:20:55.723Z,19.10
2018-05-03T13:23:24.064Z,19.00
2018-05-03T13:25:52.983Z,18.60
2018-05-03T13:28:21.139Z,18.50
2018-05-03T13:30:49.700Z,18.20
2018-05-03T13:33:18.633Z,18.30
2018-05-03T13:35:47.680Z,18.20
2018-05-03T13:38:15.853Z,18.40
2018-05-03T13:40:48.048Z,18.60
2018-05-03T13:43:16.475Z,18.90
2018-05-03T13:45:44.570Z,19.20
2018-05-03T13:48:12.746Z,18.90
2018-05-03T13:50:41.023Z,18.90
2018-05-03T13:53:09.187Z,18.70
2018-05-03T13:55:38.612Z,19.50
2018-05-03T13:58:06.691Z,20.10
2018-05-03T14:00:35.703Z,21.20
2018-05-03T14:03:03.893Z,21.10
2018-05-03T14:05:32.079Z,21.20
2018-05-03T14:08:00.268Z,21.20
2018-05-03T14:10:30.484Z,21.20
2018-05-03T14:12:58.675Z,21.00
2018-05-03T14:15:27.595Z,20.70
2018-05-03T14:17:56.520Z,20.50
2018-05-03T14:20:24.771Z,20.50
2018-05-03T14:22:52.945Z,20.50
2018-05-03T14:25:21.261Z,20.90
2018-05-03T14:27:50.181Z,21.00
2018-05-03T14:30:23.007Z,20.70
2018-05-03T14:32:52.103Z,20.80
2018-05-03T14:35:20.434Z,20.80
2018-05-03T14:37:48.595Z,20.10
2018-05-03T14:40:16.773Z,20.20
2018-05-03T14:42:44.941Z,20.30
2018-05-03T14:45:13.116Z,20.70
2018-05-03T14:47:41.300Z,20.70
2018-05-03T14:50:11.739Z,20.60
2018-05-03T14:52:40.085Z,20.40
2018-05-03T14:55:08.858Z,20.30
2018-05-03T14:57:37.024Z,20.00
2018-05-03T15:00:08.719Z,20.00
2018-05-03T15:02:36.960Z,19.90
2018-05-03T15:05:05.127Z,19.90
2018-05-03T15:07:34.163Z,19.80
2018-05-03T15:10:02.428Z,19.60
2018-05-03T15:12:30.614Z,19.60
2018-05-03T15:14:58.776Z,19.70
2018-05-03T15:17:28.296Z,19.30
2018-05-03T15:19:56.517Z,19.50
2018-05-03T15:22:24.687Z,19.50
2018-05-03T15:24:52.862Z,19.20
2018-05-03T15:27:21.033Z,18.90
2018-05-03T15:29:50.052Z,19.00
2018-05-03T15:32:19.420Z,19.10
2018-05-03T15:34:47.588Z,19.10
2018-05-03T15:37:15.896Z,18.90
2018-05-03T15:39:44.159Z,18.70
2018-05-03T15:42:12.472Z,18.70
2018-05-03T15:44:40.681Z,19.10
2018-05-03T15:47:09.574Z,19.00
2018-05-03T15:49:37.731Z,18.80
2018-05-03T15:52:05.884Z,18.70
2018-05-03T15:54:34.039Z,18.80
2018-05-03T15:57:02.211Z,18.70
2018-05-03T15:59:31.269Z,18.60
2018-05-03T16:01:59.919Z,18.70
2018-05-03T16:04:28.081Z,18.80
2018-05-03T16:06:56.909Z,18.70
2018-05-03T16:09:25.100Z,18.90
2018-05-03T16:11:53.931Z,18.90
2018-05-03T16:14:22.170Z,19.00
2018-05-03T16:16:50.266Z,19.00
2018-05-03T16:19:18.440Z,19.10
2018-05-03T16:21:46.588Z,19.10
2018-05-03T16:24:14.748Z,18.80
2018-05-03T16:26:42.909Z,18.80
2018-05-03T16:29:11.083Z,18.90
2018-05-03T16:31:39.267Z,18.70
2018-05-03T16:34:07.413Z,18.50
2018-05-03T16:36:35.581Z,18.40
2018-05-03T16:39:04.310Z,18.50
2018-05-03T16:41:32.494Z,18.60
2018-05-03T16:44:00.745Z,18.60
2018-05-03T16:46:28.926Z,18.40
2018-05-03T16:48:57.108Z,18.30
2018-05-03T16:51:25.428Z,18.40
2018-05-03T16:53:53.587Z,18.40
2018-05-03T16:56:21.755Z,18.30
2018-05-03T16:58:49.920Z,18.20
2018-05-03T17:01:19.156Z,18.10
2018-05-03T17:03:47.327Z,18.10
2018-05-03T17:06:15.694Z,18.00
2018-05-03T17:08:43.859Z,18.00
2018-05-03T17:11:12.040Z,18.10
2018-05-03T17:13:40.262Z,18.00
2018-05-03T17:16:08.433Z,18.00
2018-05-03T17:18:36.664Z,18.00
2018-05-03T17:21:04.941Z,17.80
2018-05-03T17:23:33.127Z,17.70
2018-05-03T17:26:01.317Z,17.70
2018-05-03T17:28:29.465Z,17.80
2018-05-03T17:30:58.706Z,17.80
2018-05-03T17:33:27.660Z,17.80
2018-05-03T17:35:56.616Z,17.70
2018-05-03T17:38:24.778Z,17.70
2018-05-03T17:40:56.503Z,17.50
2018-05-03T17:43:24.916Z,17.50
2018-05-03T17:45:53.449Z,17.60
2018-05-03T17:48:22.368Z,17.60
2018-05-03T17:50:51.685Z,17.60
2018-05-03T17:53:19.903Z,17.40
2018-05-03T17:55:48.108Z,17.40
2018-05-03T17:58:16.269Z,17.40
2018-05-03T18:00:45.396Z,17.40
2018-05-03T18:03:13.574Z,17.40
2018-05-03T18:05:41.760Z,17.40
2018-05-03T18:08:10.672Z,17.40
2018-05-03T18:10:39.695Z,17.30
2018-05-03T18:13:08.699Z,17.30
2018-05-03T18:15:36.902Z,17.20
2018-05-03T18:18:05.074Z,17.20
2018-05-03T18:20:33.269Z,17.20
2018-05-03T18:23:01.433Z,17.00
2018-05-03T18:25:29.604Z,17.00
2018-05-03T18:27:57.769Z,17.00
2018-05-03T18:30:29.791Z,16.90
2018-05-03T18:33:00.014Z,16.80
2018-05-03T18:35:28.570Z,16.90
2018-05-03T18:37:56.765Z,16.90
2018-05-03T18:40:25.371Z,16.80
2018-05-03T18:42:53.530Z,16.70
2018-05-03T18:45:22.449Z,16.70
2018-05-03T18:47:50.623Z,16.70
2018-05-03T18:50:18.881Z,16.70
2018-05-03T18:52:47.032Z,16.70
2018-05-03T18:55:15.217Z,16.80
2018-05-03T18:57:43.394Z,16.80
2018-05-03T19:00:11.600Z,16.80
2018-05-03T19:02:39.754Z,16.80
2018-05-03T19:05:32.393Z,16.80
2018-05-03T19:08:33.300Z,16.80
2018-05-03T19:11:08.880Z,16.80
2018-05-03T19:13:37.094Z,16.90
2018-05-03T19:16:06.130Z,16.90
2018-05-03T19:18:35.074Z,16.70
2018-05-03T19:21:03.348Z,16.70
2018-05-03T19:23:34.475Z,15.60
2018-05-03T19:26:05.188Z,16.60
2018-05-03T19:29:01.837Z,16.60
2018-05-03T19:31:30.016Z,16.60
2018-05-03T19:33:58.175Z,16.60
2018-05-03T19:36:27.104Z,16.60
2018-05-03T19:38:55.295Z,16.60
2018-05-03T19:41:36.775Z,16.60
2018-05-03T19:44:08.020Z,16.50
2018-05-03T19:46:36.220Z,16.50
2018-05-03T19:49:04.462Z,16.50
2018-05-03T19:51:32.683Z,16.40
2018-05-03T19:54:00.856Z,16.40
2018-05-03T19:56:29.021Z,16.40
2018-05-03T19:58:57.204Z,16.40
2018-05-03T20:01:29.220Z,16.30
2018-05-03T20:03:57.612Z,16.20
2018-05-03T20:06:27.178Z,16.20
2018-05-03T20:08:55.725Z,16.20
2018-05-03T20:11:23.935Z,16.20
2018-05-03T20:14:01.564Z,16.10
2018-05-03T20:16:30.649Z,16.10
2018-05-03T20:18:58.819Z,16.00
2018-05-03T20:21:28.125Z,16.00
2018-05-03T20:23:57.979Z,16.00
2018-05-03T20:26:40.221Z,15.90
2018-05-03T20:31:37.873Z,15.80
2018-05-03T20:34:06.045Z,15.70
2018-05-03T20:36:34.212Z,15.70
2018-05-03T20:39:02.497Z,15.70
2018-05-03T20:41:30.724Z,15.60
2018-05-03T20:43:58.961Z,15.50
2018-05-03T20:46:27.561Z,15.50
2018-05-03T20:48:56.713Z,15.50
2018-05-03T20:51:25.882Z,15.50
2018-05-03T20:53:54.443Z,15.60
2018-05-03T20:56:22.614Z,15.60
2018-05-03T20:58:50.809Z,15.50
2018-05-03T21:04:16.078Z,15.50
2018-05-03T21:06:45.852Z,15.50
2018-05-03T21:09:15.187Z,15.50
2018-05-03T21:11:44.080Z,15.40
2018-05-03T21:14:12.262Z,15.40
2018-05-03T21:16:40.807Z,15.40
2018-05-03T21:19:10.912Z,15.40
2018-05-03T21:21:39.333Z,15.40
2018-05-03T21:24:07.507Z,15.40
2018-05-03T21:26:36.435Z,15.30
2018-05-03T21:29:04.628Z,15.30
2018-05-03T21:31:33.160Z,15.30
2018-05-03T21:34:01.719Z,15.30
2018-05-03T21:36:30.025Z,15.30
2018-05-03T21:38:58.197Z,15.30
2018-05-03T21:41:29.606Z,15.20
2018-05-03T21:43:57.768Z,15.20
2018-05-03T21:46:25.928Z,15.20
2018-05-03T21:48:54.101Z,15.20
2018-05-03T21:51:22.401Z,15.10
2018-05-03T21:53:50.546Z,15.20
2018-05-03T21:56:18.688Z,15.10
2018-05-03T21:58:47.022Z,15.10
2018-05-03T22:01:16.351Z,15.10
2018-05-03T22:03:44.531Z,15.10
2018-05-03T22:06:13.221Z,15.00
2018-05-03T22:08:41.427Z,15.10
2018-05-03T22:11:17.284Z,15.10
2018-05-03T22:13:45.452Z,15.00
2018-05-03T22:16:13.624Z,15.00
2018-05-03T22:18:42.544Z,15.00
2018-05-03T22:21:11.720Z,14.90
2018-05-03T22:23:39.973Z,14.90
2018-05-03T22:26:08.131Z,14.80
2018-05-03T22:28:36.299Z,14.70
2018-05-03T22:31:06.478Z,14.70
2018-05-03T22:33:34.631Z,14.80
2018-05-03T22:36:03.568Z,14.80
2018-05-03T22:38:31.765Z,14.80
2018-05-03T22:41:00.012Z,14.90
2018-05-03T22:43:28.212Z,14.90
2018-05-03T22:45:56.371Z,14.90
2018-05-03T22:48:24.528Z,14.80
2018-05-03T22:50:55.770Z,14.70
2018-05-03T22:53:30.287Z,14.70
2018-05-03T22:55:58.442Z,14.80
2018-05-03T22:58:27.350Z,14.80
2018-05-03T23:00:56.649Z,14.80
2018-05-03T23:03:24.813Z,14.80
2018-05-03T23:05:53.726Z,14.70
2018-05-03T23:08:22.090Z,14.80
2018-05-03T23:10:50.772Z,14.80
2018-05-03T23:13:18.949Z,14.70
2018-05-03T23:15:47.106Z,14.60
2018-05-03T23:18:15.830Z,14.50
2018-05-03T23:20:44.129Z,14.50
2018-05-03T23:23:12.294Z,14.40
2018-05-03T23:25:41.361Z,14.40
2018-05-03T23:28:09.518Z,14.30
2018-05-03T23:30:37.802Z,14.30
2018-05-03T23:33:05.952Z,14.20
2018-05-03T23:35:34.504Z,14.10
2018-05-03T23:38:02.675Z,14.20
2018-05-03T23:40:30.913Z,14.10
2018-05-03T23:42:59.075Z,14.00
2018-05-03T23:45:27.993Z,13.90
2018-05-03T23:47:56.176Z,13.80
2018-05-03T23:50:25.452Z,13.80
2018-05-03T23:52:53.616Z,13.70
2018-05-03T23:55:22.530Z,13.60
2018-05-03T23:57:50.701Z,13.60
